createdAt,value
2019-03-24T04:46:41.456Z,7.00
2019-03-24T04:49:12.308Z,7.20
2019-03-24T04:51:43.232Z,7.10
2019-03-24T04:54:14.060Z,7.20
2019-03-24T04:56:44.943Z,7.20
2019-03-24T04:59:15.803Z,6.90
2019-03-24T05:01:46.741Z,6.80
2019-03-24T05:04:17.686Z,6.90
2019-03-24T05:06:48.790Z,7.00
2019-03-24T05:09:19.861Z,7.10
2019-03-24T05:11:50.732Z,7.10
2019-03-24T05:14:21.583Z,7.20
2019-03-24T05:16:52.447Z,7.20
2019-03-24T05:19:23.305Z,7.30
2019-03-24T05:21:54.190Z,7.30
2019-03-24T05:24:25.022Z,6.90
2019-03-24T05:26:55.875Z,6.90
2019-03-24T05:29:26.721Z,7.00
2019-03-24T05:31:57.591Z,7.00
2019-03-24T05:34:28.423Z,7.10
2019-03-24T05:36:59.361Z,7.00
2019-03-24T05:39:30.194Z,7.00
2019-03-24T05:42:01.077Z,7.00
2019-03-24T05:44:31.944Z,7.00
2019-03-24T05:47:02.869Z,7.00
2019-03-24T05:49:33.714Z,7.00
2019-03-24T05:52:04.596Z,7.00
2019-03-24T05:54:35.431Z,7.00
2019-03-24T05:57:06.289Z,6.90
2019-03-24T05:59:37.134Z,6.90
2019-03-24T06:02:07.994Z,6.80
2019-03-24T06:04:38.901Z,6.80
2019-03-24T06:07:09.774Z,6.90
2019-03-24T06:09:40.612Z,6.90
2019-03-24T06:12:11.510Z,7.00
2019-03-24T06:14:42.391Z,6.70
2019-03-24T06:17:13.246Z,6.20
2019-03-24T06:19:44.080Z,6.10
2019-03-24T06:22:14.998Z,6.40
2019-03-24T06:24:45.967Z,6.30
2019-03-24T06:27:16.901Z,6.40
2019-03-24T06:29:47.762Z,6.30
2019-03-24T06:32:18.649Z,6.50
2019-03-24T06:34:49.497Z,6.40
2019-03-24T06:37:20.400Z,6.50
2019-03-24T06:39:51.359Z,6.50
2019-03-24T06:42:23.352Z,6.60
2019-03-24T06:44:55.914Z,6.70
2019-03-24T06:47:28.456Z,6.70
2019-03-24T06:50:01.339Z,6.80
2019-03-24T06:52:32.583Z,6.80
2019-03-24T06:55:03.437Z,7.10
2019-03-24T06:57:34.302Z,7.30
2019-03-24T07:00:05.873Z,7.40
2019-03-24T07:02:36.797Z,7.60
2019-03-24T07:05:08.243Z,7.60
2019-03-24T07:07:39.131Z,7.50
2019-03-24T07:10:10.397Z,7.10
2019-03-24T07:12:41.364Z,6.90
2019-03-24T07:15:12.399Z,6.90
2019-03-24T07:17:43.387Z,7.00
2019-03-24T07:20:14.347Z,7.30
2019-03-24T07:22:45.250Z,7.60
2019-03-24T07:25:16.195Z,7.50
2019-03-24T07:27:47.016Z,7.60
2019-03-24T07:30:18.428Z,7.50
2019-03-24T07:32:49.420Z,7.70
2019-03-24T07:35:20.442Z,7.80
2019-03-24T07:37:51.426Z,8.00
2019-03-24T07:40:26.088Z,8.30
2019-03-24T07:42:57.703Z,8.50
2019-03-24T07:45:34.208Z,8.70
2019-03-24T07:48:19.048Z,8.80
2019-03-24T07:50:46.205Z,8.80
2019-03-24T07:53:23.045Z,8.70
2019-03-24T07:56:06.813Z,9.10
2019-03-24T07:58:42.368Z,9.20
2019-03-24T08:01:14.348Z,9.30
2019-03-24T08:03:45.725Z,9.40
2019-03-24T08:06:17.385Z,9.60
2019-03-24T08:08:49.436Z,9.70
2019-03-24T08:11:21.283Z,9.90
2019-03-24T08:13:55.041Z,10.00
2019-03-24T08:16:25.955Z,9.90
2019-03-24T08:18:56.789Z,10.10
2019-03-24T08:21:27.665Z,10.00
2019-03-24T08:23:59.067Z,10.00
2019-03-24T08:26:29.965Z,10.10
2019-03-24T08:29:01.075Z,10.00
2019-03-24T08:31:32.200Z,10.20
2019-03-24T08:34:06.859Z,10.30
2019-03-24T08:36:39.833Z,10.40
2019-03-24T08:39:14.642Z,10.40
2019-03-24T08:41:46.817Z,10.10
2019-03-24T08:44:19.447Z,9.70
2019-03-24T08:46:50.898Z,9.90
2019-03-24T08:49:22.090Z,10.20
2019-03-24T08:51:53.941Z,10.10
2019-03-24T08:54:24.864Z,10.40
2019-03-24T08:57:08.597Z,10.60
2019-03-24T08:59:37.658Z,10.80
2019-03-24T09:02:08.883Z,11.00
2019-03-24T09:04:50.952Z,11.20
2019-03-24T09:07:22.050Z,11.60
2019-03-24T09:09:52.978Z,11.80
2019-03-24T09:12:25.957Z,11.70
2019-03-24T09:14:57.080Z,11.90
2019-03-24T09:17:27.975Z,12.00
2019-03-24T09:19:58.833Z,12.10
2019-03-24T09:22:29.739Z,12.30
2019-03-24T09:25:00.743Z,12.40
2019-03-24T09:27:31.586Z,12.40
2019-03-24T09:30:02.496Z,12.40
2019-03-24T09:32:33.349Z,12.30
2019-03-24T09:35:04.936Z,12.40
2019-03-24T09:37:35.852Z,12.50
2019-03-24T09:40:09.041Z,12.50
2019-03-24T09:42:39.924Z,12.50
2019-03-24T09:45:12.159Z,12.50
2019-03-24T09:47:42.988Z,12.40
2019-03-24T09:50:14.326Z,12.50
2019-03-24T09:52:45.536Z,12.60
2019-03-24T09:55:16.934Z,12.80
2019-03-24T09:57:48.909Z,12.90
2019-03-24T10:00:20.404Z,13.00
2019-03-24T10:02:51.578Z,13.10
2019-03-24T10:05:22.629Z,13.10
2019-03-24T10:07:53.873Z,13.40
2019-03-24T10:10:24.941Z,13.50
2019-03-24T10:12:55.843Z,13.60
2019-03-24T10:15:26.880Z,13.80
2019-03-24T10:17:58.816Z,13.80
2019-03-24T10:20:31.640Z,13.60
2019-03-24T10:23:02.933Z,13.90
2019-03-24T10:25:34.734Z,14.10
2019-03-24T10:28:05.980Z,14.10
2019-03-24T10:30:37.353Z,14.30
2019-03-24T10:33:08.614Z,14.40
2019-03-24T10:35:49.569Z,14.30
2019-03-24T10:38:22.783Z,14.60
2019-03-24T10:40:53.746Z,14.70
2019-03-24T10:43:24.633Z,14.90
2019-03-24T10:45:55.530Z,14.80
2019-03-24T10:48:33.615Z,14.90
2019-03-24T10:51:01.689Z,15.10
2019-03-24T10:53:33.773Z,15.20
2019-03-24T10:56:04.641Z,15.30
2019-03-24T10:58:35.537Z,15.40
2019-03-24T11:01:06.392Z,15.70
2019-03-24T11:03:37.294Z,15.80
2019-03-24T11:06:08.234Z,15.90
2019-03-24T11:08:39.156Z,15.80
2019-03-24T11:11:10.023Z,15.70
2019-03-24T11:13:40.902Z,15.70
2019-03-24T11:16:11.941Z,15.90
2019-03-24T11:18:42.801Z,16.20
2019-03-24T11:21:13.659Z,16.20
2019-03-24T11:23:44.526Z,16.20
2019-03-24T11:26:15.466Z,16.50
2019-03-24T11:28:46.268Z,16.70
2019-03-24T11:31:17.140Z,17.00
2019-03-24T11:33:48.018Z,17.10
2019-03-24T11:36:18.845Z,17.00
2019-03-24T11:38:49.715Z,17.70
2019-03-24T11:41:23.396Z,17.70
2019-03-24T11:43:54.450Z,17.70
2019-03-24T11:46:25.289Z,18.10
2019-03-24T11:48:56.170Z,18.40
2019-03-24T11:51:27.049Z,18.20
2019-03-24T11:53:57.934Z,18.10
2019-03-24T11:56:28.805Z,17.90
2019-03-24T11:58:59.732Z,17.70
2019-03-24T12:01:38.193Z,16.30
2019-03-24T12:04:06.124Z,15.70
2019-03-24T12:06:40.480Z,15.80
2019-03-24T12:09:12.353Z,15.70
2019-03-24T12:11:48.544Z,15.80
2019-03-24T12:14:19.389Z,16.00
2019-03-24T12:16:50.259Z,16.30
2019-03-24T12:19:23.121Z,16.20
2019-03-24T12:21:54.640Z,16.30
2019-03-24T12:24:26.444Z,16.40
2019-03-24T12:27:01.455Z,16.30
2019-03-24T12:29:34.217Z,16.20
2019-03-24T12:32:07.214Z,16.20
2019-03-24T12:34:38.198Z,16.40
2019-03-24T12:37:10.111Z,16.40
2019-03-24T12:39:41.933Z,16.30
2019-03-24T12:42:13.414Z,16.20
2019-03-24T12:44:44.483Z,16.00
2019-03-24T12:47:16.406Z,15.80
2019-03-24T12:49:50.434Z,15.90
2019-03-24T12:52:23.566Z,16.00
2019-03-24T12:54:56.237Z,16.00
2019-03-24T12:57:27.632Z,16.00
2019-03-24T12:59:59.099Z,16.20
2019-03-24T13:02:31.388Z,16.30
2019-03-24T13:05:07.452Z,16.40
2019-03-24T13:07:39.484Z,16.30
2019-03-24T13:10:12.218Z,16.40
2019-03-24T13:12:44.925Z,16.30
2019-03-24T13:15:16.534Z,16.40
2019-03-24T13:17:48.094Z,16.30
2019-03-24T13:20:33.799Z,16.00
2019-03-24T13:22:53.982Z,15.90
2019-03-24T13:25:25.711Z,16.00
2019-03-24T13:27:56.908Z,16.10
2019-03-24T13:30:27.909Z,15.90
2019-03-24T13:32:58.798Z,15.80
2019-03-24T13:35:29.696Z,15.80
2019-03-24T13:38:01.377Z,15.90
2019-03-24T13:40:32.293Z,16.20
2019-03-24T13:43:03.431Z,16.10
2019-03-24T13:45:34.463Z,15.70
2019-03-24T13:48:05.306Z,15.50
2019-03-24T13:50:36.349Z,15.40
2019-03-24T13:53:07.370Z,15.60
2019-03-24T13:55:38.404Z,15.60
2019-03-24T13:58:12.007Z,15.80
2019-03-24T14:00:42.677Z,15.80
2019-03-24T14:03:14.499Z,15.80
2019-03-24T14:05:45.492Z,15.70
2019-03-24T14:08:16.431Z,15.70
2019-03-24T14:10:47.643Z,15.80
2019-03-24T14:13:18.549Z,16.30
2019-03-24T14:15:49.489Z,17.20
2019-03-24T14:18:20.357Z,18.20
2019-03-24T14:20:51.293Z,18.50
2019-03-24T14:23:22.136Z,18.50
2019-03-24T14:25:53.017Z,17.90
2019-03-24T14:28:23.886Z,17.20
2019-03-24T14:30:54.868Z,16.80
2019-03-24T14:33:25.676Z,16.40
2019-03-24T14:35:56.575Z,16.30
2019-03-24T14:38:27.432Z,16.50
2019-03-24T14:40:58.384Z,16.40
2019-03-24T14:43:29.283Z,16.40
2019-03-24T14:46:00.198Z,16.30
2019-03-24T14:48:31.059Z,15.90
2019-03-24T14:51:01.955Z,15.60
2019-03-24T14:53:32.839Z,15.40
2019-03-24T14:56:03.766Z,15.20
2019-03-24T14:58:34.645Z,15.20
2019-03-24T15:01:05.755Z,15.20
2019-03-24T15:03:36.911Z,15.10
2019-03-24T15:06:09.487Z,15.10
2019-03-24T15:08:40.468Z,15.10
2019-03-24T15:11:11.840Z,15.10
2019-03-24T15:13:43.176Z,15.00
2019-03-24T15:16:14.363Z,15.00
2019-03-24T15:18:47.125Z,15.10
2019-03-24T15:21:19.045Z,15.00
2019-03-24T15:23:51.813Z,15.20
2019-03-24T15:26:22.767Z,15.10
2019-03-24T15:28:57.325Z,15.10
2019-03-24T15:31:33.748Z,15.10
2019-03-24T15:34:06.473Z,15.10
2019-03-24T15:36:38.792Z,15.00
2019-03-24T15:39:12.014Z,14.80
2019-03-24T15:41:43.677Z,14.60
2019-03-24T15:44:15.078Z,14.50
2019-03-24T15:46:46.611Z,14.30
2019-03-24T15:49:19.032Z,14.30
2019-03-24T15:51:50.187Z,14.20
2019-03-24T15:54:23.094Z,14.10
2019-03-24T15:56:54.443Z,14.20
2019-03-24T15:59:25.935Z,14.10
2019-03-24T16:01:58.692Z,14.10
2019-03-24T16:04:30.844Z,13.90
2019-03-24T16:07:02.488Z,13.80
2019-03-24T16:09:34.759Z,13.80
2019-03-24T16:12:07.445Z,13.80
2019-03-24T16:14:38.457Z,14.00
2019-03-24T16:17:11.267Z,13.90
2019-03-24T16:19:42.465Z,14.00
2019-03-24T16:22:13.478Z,13.90
2019-03-24T16:24:44.635Z,14.20
2019-03-24T16:27:15.727Z,14.10
2019-03-24T16:29:46.821Z,14.10
2019-03-24T16:32:18.252Z,14.00
2019-03-24T16:34:49.548Z,14.00
2019-03-24T16:37:21.060Z,14.00
2019-03-24T16:39:52.194Z,13.90
2019-03-24T16:42:23.178Z,13.90
2019-03-24T16:44:54.425Z,13.80
2019-03-24T16:47:25.506Z,13.70
2019-03-24T16:50:16.455Z,13.70
2019-03-24T16:53:04.435Z,13.70
2019-03-24T16:55:38.436Z,13.90
2019-03-24T16:58:11.313Z,13.70
2019-03-24T17:00:45.642Z,13.70
2019-03-24T17:03:20.524Z,13.50
2019-03-24T17:05:51.052Z,13.40
2019-03-24T17:08:22.000Z,13.30
2019-03-24T17:10:53.083Z,13.20
2019-03-24T17:13:24.098Z,13.20
2019-03-24T17:15:55.111Z,13.30
2019-03-24T17:18:26.140Z,13.30
2019-03-24T17:20:57.180Z,13.10
2019-03-24T17:23:28.337Z,13.00
2019-03-24T17:26:00.192Z,13.00
2019-03-24T17:28:31.131Z,13.00
2019-03-24T17:31:02.252Z,13.00
2019-03-24T17:33:33.369Z,12.90
2019-03-24T17:36:06.702Z,12.90
2019-03-24T17:38:37.559Z,12.80
2019-03-24T17:41:08.864Z,12.90
2019-03-24T17:43:41.523Z,12.80
2019-03-24T17:46:12.639Z,12.60
2019-03-24T17:48:44.621Z,12.50
2019-03-24T17:51:15.776Z,12.60
2019-03-24T17:53:50.155Z,12.50
2019-03-24T17:56:25.893Z,12.40
2019-03-24T17:58:59.262Z,12.40
2019-03-24T18:01:31.035Z,12.40
2019-03-24T18:04:06.446Z,12.30
2019-03-24T18:06:37.979Z,12.20
2019-03-24T18:09:09.921Z,12.20
2019-03-24T18:11:41.053Z,12.30
2019-03-24T18:14:12.033Z,12.10
2019-03-24T18:16:42.885Z,12.10
2019-03-24T18:19:13.787Z,12.10
2019-03-24T18:21:44.621Z,12.10
2019-03-24T18:24:17.298Z,12.00
2019-03-24T18:26:48.216Z,11.90
2019-03-24T18:29:19.176Z,11.80
2019-03-24T18:31:50.069Z,11.90
2019-03-24T18:34:20.926Z,11.80
2019-03-24T18:36:51.943Z,11.70
2019-03-24T18:39:22.905Z,11.70
2019-03-24T18:41:54.016Z,11.60
2019-03-24T18:44:24.871Z,11.70
2019-03-24T18:46:56.267Z,11.70
2019-03-24T18:49:27.613Z,11.60
2019-03-24T18:51:59.207Z,11.50
2019-03-24T18:54:30.269Z,11.60
2019-03-24T18:57:01.935Z,11.40
2019-03-24T18:59:33.506Z,11.50
2019-03-24T19:02:04.646Z,11.40
2019-03-24T19:04:38.919Z,11.30
2019-03-24T19:07:10.287Z,11.20
2019-03-24T19:09:41.272Z,11.10
2019-03-24T19:12:12.598Z,10.80
2019-03-24T19:14:47.529Z,10.90
2019-03-24T19:17:19.581Z,10.70
2019-03-24T19:19:50.460Z,10.70
2019-03-24T19:22:33.075Z,10.70
2019-03-24T19:24:56.489Z,10.60
2019-03-24T19:27:29.754Z,10.50
2019-03-24T19:30:01.105Z,10.50
2019-03-24T19:32:32.711Z,10.40
2019-03-24T19:35:05.234Z,10.40
2019-03-24T19:37:36.549Z,10.40
2019-03-24T19:40:09.468Z,10.20
2019-03-24T19:42:40.645Z,10.20
2019-03-24T19:45:13.224Z,10.20
2019-03-24T19:47:44.256Z,10.10
2019-03-24T19:50:15.145Z,10.20
2019-03-24T19:52:46.120Z,10.10
2019-03-24T19:55:17.079Z,10.10
2019-03-24T19:57:48.100Z,10.10
2019-03-24T20:00:18.986Z,9.90
2019-03-24T20:02:50.203Z,9.90
2019-03-24T20:05:21.284Z,9.90
2019-03-24T20:07:52.258Z,9.70
2019-03-24T20:10:23.479Z,9.70
2019-03-24T20:12:54.432Z,9.70
2019-03-24T20:15:25.317Z,9.60
2019-03-24T20:17:56.777Z,9.60
2019-03-24T20:20:28.976Z,9.60
2019-03-24T20:22:59.886Z,9.60
2019-03-24T20:25:31.898Z,9.40
2019-03-24T20:28:02.833Z,9.40
2019-03-24T20:30:33.789Z,9.40
2019-03-24T20:33:11.624Z,9.40
2019-03-24T20:35:43.984Z,9.20
2019-03-24T20:38:15.329Z,9.20
2019-03-24T20:41:16.943Z,9.30
2019-03-24T20:43:48.015Z,9.20
2019-03-24T20:46:19.300Z,9.30
2019-03-24T20:48:50.584Z,9.30
2019-03-24T20:51:21.456Z,9.30
2019-03-24T20:53:56.174Z,9.10
2019-03-24T20:56:26.991Z,9.00
2019-03-24T20:58:58.207Z,8.90
2019-03-24T21:01:29.462Z,9.20
2019-03-24T21:04:00.962Z,9.10
2019-03-24T21:06:32.154Z,9.30
2019-03-24T21:09:13.541Z,9.20
2019-03-24T21:11:41.818Z,9.10
2019-03-24T21:14:13.641Z,9.00
2019-03-24T21:16:44.565Z,9.10
2019-03-24T21:19:15.544Z,9.20
2019-03-24T21:21:47.290Z,9.20
2019-03-24T21:24:18.251Z,9.10
2019-03-24T21:26:49.131Z,9.10
2019-03-24T21:29:23.712Z,9.20
2019-03-24T21:31:57.879Z,9.40
2019-03-24T21:34:29.112Z,9.30
2019-03-24T21:37:00.264Z,9.30
2019-03-24T21:39:31.155Z,9.20
2019-03-24T21:42:02.137Z,9.20
2019-03-24T21:44:32.921Z,9.20
2019-03-24T21:47:10.448Z,9.20
2019-03-24T21:49:41.352Z,9.10
2019-03-24T21:52:12.226Z,9.10
